Main page


Airports :

Woodvale, England

RAF Woodvale

latitude: 53-34-54N, longitude: 003-03-20W, elevation: 11 m

Current weather observation

The report was made 57 minutes ago, at 16:50 UTC
Wind 8 kt from the Northwest
Temperature 6°C
Humidity 70%
Pressure 1033 hPa
Visibility 10 km or more
Few clouds at a height of 4000 ft

METAR: EGOW 201650Z 31008KT 9999 FEW040 06/01 Q1033 BLU

Time: 17:47 (17:47 UTC)


The report was made 4 hours and 8 minutes ago, at 13:39 UTC
Forecast valid from 20 at 15 UTC to 20 at 18 UTC
Wind 10 kt from the Northwest
Visibility 10 km or more
Few clouds at a height of 3500 ft

TAF: EGOW 201339Z 2015/2018 32010KT 9999 FEW035

Weather observations and forecasts of more than 4000 airports (METAR and TAF reports).

The available stations are represented by yellow and red dots on the map.

Hover mouse over dot to see the name of the station.

Then click to see weather observations and forecasts.

To change the map : click on the green buttons with a black cross to zoom in, on the green button with a dash to zoom out, or on the green arrows for adjacent maps.